sensor_id;sensor_type;location;lat;lon;timestamp;P1;durP1;ratioP1;P2;durP2;ratioP2
18340;SDS011;9296;48.084;16.352;2023-06-05T00:00:42;12.80;;;9.45;;
18340;SDS011;9296;48.084;16.352;2023-06-05T00:03:09;13.35;;;10.10;;
18340;SDS011;9296;48.084;16.352;2023-06-05T00:05:36;10.90;;;9.25;;
18340;SDS011;9296;48.084;16.352;2023-06-05T00:08:03;12.45;;;9.30;;
18340;SDS011;9296;48.084;16.352;2023-06-05T00:10:31;13.80;;;8.95;;
18340;SDS011;9296;48.084;16.352;2023-06-05T00:12:59;15.52;;;9.57;;
18340;SDS011;9296;48.084;16.352;2023-06-05T00:15:26;10.57;;;9.15;;
18340;SDS011;9296;48.084;16.352;2023-06-05T00:17:56;10.73;;;9.18;;
18340;SDS011;9296;48.084;16.352;2023-06-05T00:20:23;11.93;;;9.43;;
18340;SDS011;9296;48.084;16.352;2023-06-05T00:22:50;13.93;;;9.45;;
18340;SDS011;9296;48.084;16.352;2023-06-05T00:25:17;10.85;;;8.90;;
18340;SDS011;9296;48.084;16.352;2023-06-05T00:27:44;12.57;;;9.02;;
18340;SDS011;9296;48.084;16.352;2023-06-05T00:30:13;10.68;;;8.95;;
18340;SDS011;9296;48.084;16.352;2023-06-05T00:32:41;12.07;;;8.98;;
18340;SDS011;9296;48.084;16.352;2023-06-05T00:35:08;12.75;;;9.38;;
18340;SDS011;9296;48.084;16.352;2023-06-05T00:37:35;12.20;;;8.63;;
18340;SDS011;9296;48.084;16.352;2023-06-05T00:40:03;11.77;;;9.38;;
18340;SDS011;9296;48.084;16.352;2023-06-05T00:42:30;11.50;;;9.20;;
18340;SDS011;9296;48.084;16.352;2023-06-05T00:44:58;10.20;;;9.15;;
18340;SDS011;9296;48.084;16.352;2023-06-05T00:47:26;10.93;;;9.32;;
18340;SDS011;9296;48.084;16.352;2023-06-05T00:49:53;12.32;;;9.48;;
18340;SDS011;9296;48.084;16.352;2023-06-05T00:52:21;12.18;;;9.70;;
18340;SDS011;9296;48.084;16.352;2023-06-05T00:54:48;12.73;;;9.60;;
18340;SDS011;9296;48.084;16.352;2023-06-05T00:57:15;11.88;;;9.15;;
18340;SDS011;9296;48.084;16.352;2023-06-05T00:59:43;11.70;;;8.75;;
18340;SDS011;9296;48.084;16.352;2023-06-05T01:02:10;11.88;;;8.52;;
18340;SDS011;9296;48.084;16.352;2023-06-05T01:04:40;13.65;;;9.02;;
18340;SDS011;9296;48.084;16.352;2023-06-05T01:07:08;11.40;;;9.18;;
18340;SDS011;9296;48.084;16.352;2023-06-05T01:09:35;12.23;;;9.80;;
18340;SDS011;9296;48.084;16.352;2023-06-05T01:12:03;16.25;;;10.27;;
18340;SDS011;9296;48.084;16.352;2023-06-05T01:14:33;12.32;;;9.65;;
18340;SDS011;9296;48.084;16.352;2023-06-05T01:17:03;11.38;;;9.23;;
18340;SDS011;9296;48.084;16.352;2023-06-05T01:19:33;12.15;;;10.07;;
18340;SDS011;9296;48.084;16.352;2023-06-05T01:22:02;12.95;;;10.25;;
18340;SDS011;9296;48.084;16.352;2023-06-05T01:24:31;13.07;;;9.95;;
18340;SDS011;9296;48.084;16.352;2023-06-05T01:27:02;13.45;;;10.85;;
18340;SDS011;9296;48.084;16.352;2023-06-05T01:29:32;19.38;;;11.40;;
18340;SDS011;9296;48.084;16.352;2023-06-05T01:32:02;12.40;;;10.20;;
18340;SDS011;9296;48.084;16.352;2023-06-05T01:34:32;13.60;;;10.63;;
18340;SDS011;9296;48.084;16.352;2023-06-05T01:37:01;12.55;;;10.48;;
18340;SDS011;9296;48.084;16.352;2023-06-05T01:39:28;15.65;;;11.10;;
18340;SDS011;9296;48.084;16.352;2023-06-05T01:41:58;14.38;;;10.93;;
18340;SDS011;9296;48.084;16.352;2023-06-05T01:44:26;13.85;;;10.73;;
18340;SDS011;9296;48.084;16.352;2023-06-05T01:46:53;13.35;;;11.00;;
18340;SDS011;9296;48.084;16.352;2023-06-05T01:49:20;15.73;;;12.20;;
18340;SDS011;9296;48.084;16.352;2023-06-05T01:51:48;15.10;;;12.10;;
18340;SDS011;9296;48.084;16.352;2023-06-05T01:54:15;18.17;;;13.27;;
18340;SDS011;9296;48.084;16.352;2023-06-05T01:56:43;15.63;;;12.55;;
18340;SDS011;9296;48.084;16.352;2023-06-05T01:59:14;14.43;;;11.73;;
18340;SDS011;9296;48.084;16.352;2023-06-05T02:01:41;14.55;;;12.27;;
18340;SDS011;9296;48.084;16.352;2023-06-05T02:04:10;15.75;;;12.75;;
18340;SDS011;9296;48.084;16.352;2023-06-05T02:06:43;17.20;;;13.73;;
18340;SDS011;9296;48.084;16.352;2023-06-05T02:09:11;16.58;;;13.15;;
18340;SDS011;9296;48.084;16.352;2023-06-05T02:11:38;18.67;;;14.18;;
18340;SDS011;9296;48.084;16.352;2023-06-05T02:14:07;19.92;;;13.93;;
18340;SDS011;9296;48.084;16.352;2023-06-05T02:16:39;16.90;;;13.57;;
18340;SDS011;9296;48.084;16.352;2023-06-05T02:19:07;18.52;;;14.18;;
18340;SDS011;9296;48.084;16.352;2023-06-05T02:21:34;17.10;;;13.80;;
18340;SDS011;9296;48.084;16.352;2023-06-05T02:24:02;17.00;;;14.13;;
18340;SDS011;9296;48.084;16.352;2023-06-05T02:26:29;19.10;;;14.93;;
18340;SDS011;9296;48.084;16.352;2023-06-05T02:28:57;17.58;;;14.45;;
18340;SDS011;9296;48.084;16.352;2023-06-05T02:31:25;18.38;;;15.15;;
18340;SDS011;9296;48.084;16.352;2023-06-05T02:33:55;17.60;;;14.35;;
18340;SDS011;9296;48.084;16.352;2023-06-05T02:36:22;18.90;;;15.50;;
18340;SDS011;9296;48.084;16.352;2023-06-05T02:38:50;20.85;;;15.85;;
18340;SDS011;9296;48.084;16.352;2023-06-05T02:41:17;17.38;;;14.63;;
18340;SDS011;9296;48.084;16.352;2023-06-05T02:43:46;20.42;;;15.95;;
18340;SDS011;9296;48.084;16.352;2023-06-05T02:46:13;21.38;;;15.25;;
18340;SDS011;9296;48.084;16.352;2023-06-05T02:48:40;17.52;;;14.65;;
18340;SDS011;9296;48.084;16.352;2023-06-05T02:51:09;19.67;;;14.93;;
18340;SDS011;9296;48.084;16.352;2023-06-05T02:53:37;18.52;;;14.52;;
18340;SDS011;9296;48.084;16.352;2023-06-05T02:56:04;18.85;;;15.02;;
18340;SDS011;9296;48.084;16.352;2023-06-05T02:58:31;17.50;;;13.73;;
18340;SDS011;9296;48.084;16.352;2023-06-05T03:00:59;17.45;;;14.65;;
18340;SDS011;9296;48.084;16.352;2023-06-05T03:03:28;19.60;;;14.07;;
18340;SDS011;9296;48.084;16.352;2023-06-05T03:05:56;18.30;;;14.27;;
18340;SDS011;9296;48.084;16.352;2023-06-05T03:08:30;17.55;;;13.88;;
18340;SDS011;9296;48.084;16.352;2023-06-05T03:10:58;17.33;;;13.40;;
18340;SDS011;9296;48.084;16.352;2023-06-05T03:13:26;17.35;;;14.10;;
18340;SDS011;9296;48.084;16.352;2023-06-05T03:15:53;15.77;;;13.15;;
18340;SDS011;9296;48.084;16.352;2023-06-05T03:18:22;17.40;;;13.88;;
18340;SDS011;9296;48.084;16.352;2023-06-05T03:20:49;18.70;;;13.75;;
18340;SDS011;9296;48.084;16.352;2023-06-05T03:23:16;17.48;;;13.23;;
18340;SDS011;9296;48.084;16.352;2023-06-05T03:25:45;18.83;;;13.05;;
18340;SDS011;9296;48.084;16.352;2023-06-05T03:28:12;18.15;;;14.13;;
18340;SDS011;9296;48.084;16.352;2023-06-05T03:30:39;16.45;;;13.15;;
18340;SDS011;9296;48.084;16.352;2023-06-05T03:36:10;15.45;;;12.90;;
18340;SDS011;9296;48.084;16.352;2023-06-05T03:38:37;16.10;;;13.30;;
18340;SDS011;9296;48.084;16.352;2023-06-05T03:41:05;18.13;;;12.90;;
18340;SDS011;9296;48.084;16.352;2023-06-05T03:43:32;16.00;;;12.95;;
18340;SDS011;9296;48.084;16.352;2023-06-05T03:46:00;17.52;;;13.27;;
18340;SDS011;9296;48.084;16.352;2023-06-05T03:51:34;17.63;;;12.82;;
18340;SDS011;9296;48.084;16.352;2023-06-05T03:54:01;16.42;;;13.45;;
18340;SDS011;9296;48.084;16.352;2023-06-05T03:56:31;16.65;;;13.05;;
18340;SDS011;9296;48.084;16.352;2023-06-05T03:58:59;16.30;;;12.63;;
18340;SDS011;9296;48.084;16.352;2023-06-05T04:01:34;18.05;;;12.80;;
18340;SDS011;9296;48.084;16.352;2023-06-05T04:07:06;16.23;;;12.45;;
18340;SDS011;9296;48.084;16.352;2023-06-05T04:09:33;16.67;;;12.82;;
18340;SDS011;9296;48.084;16.352;2023-06-05T04:12:02;15.40;;;11.57;;
18340;SDS011;9296;48.084;16.352;2023-06-05T04:14:30;14.80;;;12.32;;
18340;SDS011;9296;48.084;16.352;2023-06-05T04:16:58;15.90;;;11.93;;
18340;SDS011;9296;48.084;16.352;2023-06-05T04:22:11;15.55;;;12.13;;
18340;SDS011;9296;48.084;16.352;2023-06-05T04:24:38;17.67;;;12.40;;
18340;SDS011;9296;48.084;16.352;2023-06-05T04:27:07;14.55;;;11.98;;
18340;SDS011;9296;48.084;16.352;2023-06-05T04:29:35;15.45;;;12.23;;
18340;SDS011;9296;48.084;16.352;2023-06-05T04:32:02;15.68;;;12.02;;
18340;SDS011;9296;48.084;16.352;2023-06-05T04:34:30;17.52;;;12.30;;
18340;SDS011;9296;48.084;16.352;2023-06-05T04:36:57;15.63;;;12.55;;
18340;SDS011;9296;48.084;16.352;2023-06-05T04:39:24;15.75;;;12.27;;
18340;SDS011;9296;48.084;16.352;2023-06-05T04:41:51;16.25;;;12.27;;
18340;SDS011;9296;48.084;16.352;2023-06-05T04:44:20;15.88;;;12.38;;
18340;SDS011;9296;48.084;16.352;2023-06-05T04:46:47;17.83;;;12.70;;
18340;SDS011;9296;48.084;16.352;2023-06-05T04:49:14;13.82;;;11.88;;
18340;SDS011;9296;48.084;16.352;2023-06-05T04:51:42;14.48;;;11.30;;
18340;SDS011;9296;48.084;16.352;2023-06-05T04:54:09;17.13;;;11.63;;
18340;SDS011;9296;48.084;16.352;2023-06-05T04:56:37;15.40;;;11.43;;
18340;SDS011;9296;48.084;16.352;2023-06-05T04:59:04;15.25;;;10.85;;
18340;SDS011;9296;48.084;16.352;2023-06-05T05:01:33;14.00;;;11.15;;
18340;SDS011;9296;48.084;16.352;2023-06-05T05:04:00;13.38;;;10.77;;
18340;SDS011;9296;48.084;16.352;2023-06-05T05:06:27;14.02;;;10.88;;
18340;SDS011;9296;48.084;16.352;2023-06-05T05:08:56;13.30;;;10.90;;
18340;SDS011;9296;48.084;16.352;2023-06-05T05:11:23;14.45;;;10.82;;
18340;SDS011;9296;48.084;16.352;2023-06-05T05:13:51;13.77;;;10.05;;
18340;SDS011;9296;48.084;16.352;2023-06-05T05:16:18;11.30;;;9.40;;
18340;SDS011;9296;48.084;16.352;2023-06-05T05:21:50;10.30;;;8.93;;
18340;SDS011;9296;48.084;16.352;2023-06-05T05:24:18;12.20;;;8.52;;
18340;SDS011;9296;48.084;16.352;2023-06-05T05:26:45;9.95;;;8.70;;
18340;SDS011;9296;48.084;16.352;2023-06-05T05:29:12;11.23;;;8.68;;
18340;SDS011;9296;48.084;16.352;2023-06-05T05:31:39;10.35;;;8.73;;
18340;SDS011;9296;48.084;16.352;2023-06-05T05:37:11;10.95;;;8.30;;
18340;SDS011;9296;48.084;16.352;2023-06-05T05:39:39;13.55;;;9.10;;
18340;SDS011;9296;48.084;16.352;2023-06-05T05:42:06;10.95;;;8.50;;
18340;SDS011;9296;48.084;16.352;2023-06-05T05:44:33;10.60;;;8.30;;
18340;SDS011;9296;48.084;16.352;2023-06-05T05:47:00;10.00;;;8.32;;
18340;SDS011;9296;48.084;16.352;2023-06-05T05:49:28;11.95;;;9.10;;
18340;SDS011;9296;48.084;16.352;2023-06-05T05:51:55;10.27;;;8.63;;
18340;SDS011;9296;48.084;16.352;2023-06-05T05:54:23;14.00;;;8.48;;
18340;SDS011;9296;48.084;16.352;2023-06-05T05:56:52;12.18;;;8.88;;
18340;SDS011;9296;48.084;16.352;2023-06-05T05:59:19;10.48;;;8.52;;
18340;SDS011;9296;48.084;16.352;2023-06-05T06:01:46;11.32;;;8.38;;
18340;SDS011;9296;48.084;16.352;2023-06-05T06:04:16;9.90;;;8.57;;
18340;SDS011;9296;48.084;16.352;2023-06-05T06:06:43;9.70;;;8.20;;
18340;SDS011;9296;48.084;16.352;2023-06-05T06:09:13;11.32;;;8.13;;
18340;SDS011;9296;48.084;16.352;2023-06-05T06:11:44;11.02;;;8.73;;
18340;SDS011;9296;48.084;16.352;2023-06-05T06:14:12;14.70;;;8.70;;
18340;SDS011;9296;48.084;16.352;2023-06-05T06:16:39;11.13;;;8.82;;
18340;SDS011;9296;48.084;16.352;2023-06-05T06:19:25;9.50;;;8.32;;
18340;SDS011;9296;48.084;16.352;2023-06-05T06:21:52;11.15;;;9.20;;
18340;SDS011;9296;48.084;16.352;2023-06-05T06:24:20;12.60;;;8.38;;
18340;SDS011;9296;48.084;16.352;2023-06-05T06:26:49;11.52;;;8.73;;
18340;SDS011;9296;48.084;16.352;2023-06-05T06:29:18;11.32;;;7.97;;
18340;SDS011;9296;48.084;16.352;2023-06-05T06:31:45;9.98;;;7.40;;
18340;SDS011;9296;48.084;16.352;2023-06-05T06:34:12;9.05;;;7.00;;
18340;SDS011;9296;48.084;16.352;2023-06-05T06:36:40;8.95;;;6.70;;
18340;SDS011;9296;48.084;16.352;2023-06-05T06:39:08;9.38;;;7.18;;
18340;SDS011;9296;48.084;16.352;2023-06-05T06:41:36;9.77;;;6.88;;
18340;SDS011;9296;48.084;16.352;2023-06-05T06:44:05;8.32;;;6.75;;
18340;SDS011;9296;48.084;16.352;2023-06-05T06:46:32;8.88;;;5.80;;
18340;SDS011;9296;48.084;16.352;2023-06-05T06:48:59;8.65;;;5.85;;
18340;SDS011;9296;48.084;16.352;2023-06-05T06:51:26;7.05;;;5.70;;
18340;SDS011;9296;48.084;16.352;2023-06-05T06:53:54;7.40;;;5.35;;
18340;SDS011;9296;48.084;16.352;2023-06-05T06:56:21;7.30;;;5.72;;
18340;SDS011;9296;48.084;16.352;2023-06-05T06:58:48;7.97;;;5.80;;
18340;SDS011;9296;48.084;16.352;2023-06-05T07:01:17;6.55;;;5.85;;
18340;SDS011;9296;48.084;16.352;2023-06-05T07:03:45;7.30;;;5.53;;
18340;SDS011;9296;48.084;16.352;2023-06-05T07:06:12;7.35;;;5.88;;
18340;SDS011;9296;48.084;16.352;2023-06-05T07:08:40;8.38;;;5.93;;
18340;SDS011;9296;48.084;16.352;2023-06-05T07:11:07;6.32;;;5.72;;
18340;SDS011;9296;48.084;16.352;2023-06-05T07:13:34;7.70;;;5.90;;
18340;SDS011;9296;48.084;16.352;2023-06-05T07:16:01;8.70;;;5.70;;
18340;SDS011;9296;48.084;16.352;2023-06-05T07:18:30;8.88;;;6.40;;
18340;SDS011;9296;48.084;16.352;2023-06-05T07:20:57;9.23;;;6.40;;
18340;SDS011;9296;48.084;16.352;2023-06-05T07:23:24;7.25;;;6.05;;
18340;SDS011;9296;48.084;16.352;2023-06-05T07:25:52;8.60;;;6.03;;
18340;SDS011;9296;48.084;16.352;2023-06-05T07:28:19;8.18;;;6.65;;
18340;SDS011;9296;48.084;16.352;2023-06-05T07:30:48;6.70;;;5.70;;
18340;SDS011;9296;48.084;16.352;2023-06-05T07:33:16;7.88;;;5.97;;
18340;SDS011;9296;48.084;16.352;2023-06-05T07:35:45;6.80;;;6.07;;
18340;SDS011;9296;48.084;16.352;2023-06-05T07:38:13;7.82;;;5.85;;
18340;SDS011;9296;48.084;16.352;2023-06-05T07:40:40;6.03;;;5.18;;
18340;SDS011;9296;48.084;16.352;2023-06-05T07:43:08;8.45;;;5.43;;
18340;SDS011;9296;48.084;16.352;2023-06-05T07:45:39;6.03;;;5.30;;
18340;SDS011;9296;48.084;16.352;2023-06-05T07:48:06;6.32;;;4.90;;
18340;SDS011;9296;48.084;16.352;2023-06-05T07:50:33;9.23;;;5.53;;
18340;SDS011;9296;48.084;16.352;2023-06-05T07:53:03;6.68;;;5.47;;
18340;SDS011;9296;48.084;16.352;2023-06-05T07:55:30;6.35;;;5.20;;
18340;SDS011;9296;48.084;16.352;2023-06-05T07:57:57;7.93;;;5.88;;
18340;SDS011;9296;48.084;16.352;2023-06-05T08:00:26;5.80;;;5.07;;
18340;SDS011;9296;48.084;16.352;2023-06-05T08:02:53;8.00;;;6.00;;
18340;SDS011;9296;48.084;16.352;2023-06-05T08:08:28;6.13;;;5.40;;
18340;SDS011;9296;48.084;16.352;2023-06-05T08:10:56;7.13;;;5.88;;
18340;SDS011;9296;48.084;16.352;2023-06-05T08:13:23;6.90;;;6.10;;
18340;SDS011;9296;48.084;16.352;2023-06-05T08:15:51;9.30;;;6.82;;
18340;SDS011;9296;48.084;16.352;2023-06-05T08:18:18;8.00;;;6.18;;
18340;SDS011;9296;48.084;16.352;2023-06-05T08:20:46;8.57;;;5.90;;
18340;SDS011;9296;48.084;16.352;2023-06-05T08:23:14;7.25;;;5.97;;
18340;SDS011;9296;48.084;16.352;2023-06-05T08:25:43;6.32;;;5.53;;
18340;SDS011;9296;48.084;16.352;2023-06-05T08:28:13;7.68;;;5.55;;
18340;SDS011;9296;48.084;16.352;2023-06-05T08:30:40;7.28;;;5.50;;
18340;SDS011;9296;48.084;16.352;2023-06-05T08:33:09;8.13;;;5.75;;
18340;SDS011;9296;48.084;16.352;2023-06-05T08:38:40;8.05;;;5.50;;
18340;SDS011;9296;48.084;16.352;2023-06-05T08:41:09;6.22;;;5.55;;
18340;SDS011;9296;48.084;16.352;2023-06-05T08:43:36;6.05;;;5.50;;
18340;SDS011;9296;48.084;16.352;2023-06-05T08:46:04;6.25;;;5.65;;
18340;SDS011;9296;48.084;16.352;2023-06-05T08:48:32;8.70;;;5.80;;
18340;SDS011;9296;48.084;16.352;2023-06-05T08:51:00;6.30;;;4.93;;
18340;SDS011;9296;48.084;16.352;2023-06-05T08:53:29;6.15;;;5.07;;
18340;SDS011;9296;48.084;16.352;2023-06-05T08:55:59;6.22;;;4.78;;
18340;SDS011;9296;48.084;16.352;2023-06-05T08:58:29;6.40;;;5.15;;
18340;SDS011;9296;48.084;16.352;2023-06-05T09:00:57;5.35;;;4.85;;
18340;SDS011;9296;48.084;16.352;2023-06-05T09:03:24;5.22;;;4.60;;
18340;SDS011;9296;48.084;16.352;2023-06-05T09:06:09;7.30;;;4.78;;
18340;SDS011;9296;48.084;16.352;2023-06-05T09:08:37;5.82;;;4.95;;
18340;SDS011;9296;48.084;16.352;2023-06-05T09:11:20;5.25;;;4.75;;
18340;SDS011;9296;48.084;16.352;2023-06-05T09:13:49;7.03;;;4.72;;
18340;SDS011;9296;48.084;16.352;2023-06-05T09:16:19;8.98;;;4.93;;
18340;SDS011;9296;48.084;16.352;2023-06-05T09:21:51;4.68;;;4.22;;
18340;SDS011;9296;48.084;16.352;2023-06-05T09:24:19;5.68;;;5.07;;
18340;SDS011;9296;48.084;16.352;2023-06-05T09:26:49;7.22;;;5.07;;
18340;SDS011;9296;48.084;16.352;2023-06-05T09:29:22;5.38;;;4.85;;
18340;SDS011;9296;48.084;16.352;2023-06-05T09:31:49;4.95;;;4.45;;
18340;SDS011;9296;48.084;16.352;2023-06-05T09:40:36;5.20;;;4.70;;
18340;SDS011;9296;48.084;16.352;2023-06-05T09:43:05;5.75;;;5.10;;
18340;SDS011;9296;48.084;16.352;2023-06-05T09:45:44;5.30;;;4.80;;
18340;SDS011;9296;48.084;16.352;2023-06-05T09:48:14;5.63;;;4.88;;
18340;SDS011;9296;48.084;16.352;2023-06-05T09:53:48;10.77;;;5.28;;
18340;SDS011;9296;48.084;16.352;2023-06-05T09:56:16;9.93;;;6.38;;
18340;SDS011;9296;48.084;16.352;2023-06-05T09:58:44;10.23;;;7.35;;
18340;SDS011;9296;48.084;16.352;2023-06-05T10:01:14;8.63;;;6.63;;
18340;SDS011;9296;48.084;16.352;2023-06-05T10:03:43;7.93;;;5.53;;
18340;SDS011;9296;48.084;16.352;2023-06-05T10:06:29;6.93;;;6.18;;
18340;SDS011;9296;48.084;16.352;2023-06-05T10:08:56;7.18;;;6.30;;
18340;SDS011;9296;48.084;16.352;2023-06-05T10:11:26;7.75;;;6.07;;
18340;SDS011;9296;48.084;16.352;2023-06-05T10:13:53;10.38;;;6.15;;
18340;SDS011;9296;48.084;16.352;2023-06-05T10:16:23;7.97;;;5.47;;
18340;SDS011;9296;48.084;16.352;2023-06-05T10:18:53;6.53;;;5.55;;
18340;SDS011;9296;48.084;16.352;2023-06-05T10:21:38;13.75;;;5.78;;
18340;SDS011;9296;48.084;16.352;2023-06-05T10:24:06;9.82;;;5.78;;
18340;SDS011;9296;48.084;16.352;2023-06-05T10:26:40;11.60;;;5.57;;
18340;SDS011;9296;48.084;16.352;2023-06-05T10:29:16;7.50;;;5.90;;
18340;SDS011;9296;48.084;16.352;2023-06-05T10:31:52;8.07;;;5.60;;
18340;SDS011;9296;48.084;16.352;2023-06-05T10:34:42;7.88;;;5.43;;
18340;SDS011;9296;48.084;16.352;2023-06-05T10:37:35;8.68;;;5.07;;
18340;SDS011;9296;48.084;16.352;2023-06-05T10:40:06;6.85;;;5.80;;
18340;SDS011;9296;48.084;16.352;2023-06-05T10:42:34;10.38;;;5.78;;
18340;SDS011;9296;48.084;16.352;2023-06-05T10:45:03;7.22;;;6.00;;
18340;SDS011;9296;48.084;16.352;2023-06-05T10:47:50;6.20;;;5.60;;
18340;SDS011;9296;48.084;16.352;2023-06-05T10:59:12;10.70;;;5.35;;
18340;SDS011;9296;48.084;16.352;2023-06-05T11:01:40;6.88;;;5.88;;
18340;SDS011;9296;48.084;16.352;2023-06-05T11:04:09;6.10;;;5.50;;
18340;SDS011;9296;48.084;16.352;2023-06-05T11:06:36;6.78;;;5.57;;
18340;SDS011;9296;48.084;16.352;2023-06-05T11:09:10;7.78;;;6.13;;
18340;SDS011;9296;48.084;16.352;2023-06-05T11:11:54;7.45;;;6.05;;
18340;SDS011;9296;48.084;16.352;2023-06-05T11:14:22;8.75;;;6.00;;
18340;SDS011;9296;48.084;16.352;2023-06-05T11:16:49;7.70;;;5.68;;
18340;SDS011;9296;48.084;16.352;2023-06-05T11:22:21;6.78;;;5.30;;
18340;SDS011;9296;48.084;16.352;2023-06-05T11:27:43;6.40;;;5.00;;
18340;SDS011;9296;48.084;16.352;2023-06-05T11:30:10;6.82;;;4.40;;
18340;SDS011;9296;48.084;16.352;2023-06-05T11:32:38;5.78;;;3.83;;
18340;SDS011;9296;48.084;16.352;2023-06-05T11:35:05;5.25;;;4.45;;
18340;SDS011;9296;48.084;16.352;2023-06-05T11:37:35;5.95;;;3.40;;
18340;SDS011;9296;48.084;16.352;2023-06-05T11:40:03;5.85;;;3.83;;
18340;SDS011;9296;48.084;16.352;2023-06-05T11:42:33;4.47;;;3.67;;
18340;SDS011;9296;48.084;16.352;2023-06-05T11:45:00;6.43;;;3.75;;
18340;SDS011;9296;48.084;16.352;2023-06-05T11:47:28;6.70;;;3.90;;
18340;SDS011;9296;48.084;16.352;2023-06-05T11:50:06;3.75;;;3.33;;
18340;SDS011;9296;48.084;16.352;2023-06-05T11:52:35;5.10;;;3.40;;
18340;SDS011;9296;48.084;16.352;2023-06-05T11:55:10;4.63;;;4.20;;
18340;SDS011;9296;48.084;16.352;2023-06-05T11:57:40;8.35;;;3.90;;
18340;SDS011;9296;48.084;16.352;2023-06-05T12:00:08;6.40;;;3.50;;
18340;SDS011;9296;48.084;16.352;2023-06-05T12:02:36;4.18;;;3.55;;
18340;SDS011;9296;48.084;16.352;2023-06-05T12:08:23;7.78;;;4.60;;
18340;SDS011;9296;48.084;16.352;2023-06-05T12:10:52;5.50;;;4.20;;
18340;SDS011;9296;48.084;16.352;2023-06-05T12:13:19;4.57;;;3.88;;
18340;SDS011;9296;48.084;16.352;2023-06-05T12:15:56;5.85;;;4.03;;
18340;SDS011;9296;48.084;16.352;2023-06-05T12:18:30;6.90;;;4.53;;
18340;SDS011;9296;48.084;16.352;2023-06-05T12:20:58;5.18;;;4.50;;
18340;SDS011;9296;48.084;16.352;2023-06-05T12:23:28;6.07;;;4.57;;
18340;SDS011;9296;48.084;16.352;2023-06-05T12:25:57;6.32;;;4.45;;
18340;SDS011;9296;48.084;16.352;2023-06-05T12:28:25;5.25;;;4.53;;
18340;SDS011;9296;48.084;16.352;2023-06-05T12:30:52;6.93;;;5.10;;
18340;SDS011;9296;48.084;16.352;2023-06-05T12:33:20;7.28;;;4.40;;
18340;SDS011;9296;48.084;16.352;2023-06-05T12:35:47;9.75;;;5.15;;
18340;SDS011;9296;48.084;16.352;2023-06-05T12:38:14;7.13;;;5.13;;
18340;SDS011;9296;48.084;16.352;2023-06-05T12:40:44;5.65;;;4.90;;
18340;SDS011;9296;48.084;16.352;2023-06-05T12:43:17;7.38;;;4.55;;
18340;SDS011;9296;48.084;16.352;2023-06-05T12:45:44;8.27;;;5.03;;
18340;SDS011;9296;48.084;16.352;2023-06-05T12:48:11;9.43;;;5.07;;
18340;SDS011;9296;48.084;16.352;2023-06-05T12:53:57;8.00;;;5.78;;
18340;SDS011;9296;48.084;16.352;2023-06-05T12:56:26;6.28;;;5.05;;
18340;SDS011;9296;48.084;16.352;2023-06-05T12:58:54;7.38;;;5.13;;
18340;SDS011;9296;48.084;16.352;2023-06-05T13:01:22;6.85;;;4.72;;
18340;SDS011;9296;48.084;16.352;2023-06-05T13:03:50;6.35;;;5.30;;
18340;SDS011;9296;48.084;16.352;2023-06-05T13:09:20;6.97;;;5.18;;
18340;SDS011;9296;48.084;16.352;2023-06-05T13:11:49;7.45;;;5.40;;
18340;SDS011;9296;48.084;16.352;2023-06-05T13:14:16;8.25;;;5.60;;
18340;SDS011;9296;48.084;16.352;2023-06-05T13:16:43;6.25;;;5.32;;
18340;SDS011;9296;48.084;16.352;2023-06-05T13:19:11;8.02;;;5.07;;
18340;SDS011;9296;48.084;16.352;2023-06-05T13:21:38;8.10;;;5.38;;
18340;SDS011;9296;48.084;16.352;2023-06-05T13:24:05;10.30;;;5.95;;
18340;SDS011;9296;48.084;16.352;2023-06-05T13:26:33;7.35;;;5.50;;
18340;SDS011;9296;48.084;16.352;2023-06-05T13:29:02;11.88;;;6.85;;
18340;SDS011;9296;48.084;16.352;2023-06-05T13:34:23;9.15;;;6.75;;
18340;SDS011;9296;48.084;16.352;2023-06-05T13:39:54;6.57;;;5.90;;
18340;SDS011;9296;48.084;16.352;2023-06-05T13:42:21;7.72;;;6.07;;
18340;SDS011;9296;48.084;16.352;2023-06-05T13:44:50;8.00;;;6.25;;
18340;SDS011;9296;48.084;16.352;2023-06-05T13:47:17;7.13;;;5.57;;
18340;SDS011;9296;48.084;16.352;2023-06-05T13:49:45;6.10;;;5.50;;
18340;SDS011;9296;48.084;16.352;2023-06-05T13:52:12;12.85;;;6.38;;
18340;SDS011;9296;48.084;16.352;2023-06-05T13:54:39;7.53;;;5.57;;
18340;SDS011;9296;48.084;16.352;2023-06-05T13:57:08;5.90;;;5.07;;
18340;SDS011;9296;48.084;16.352;2023-06-05T13:59:37;8.13;;;5.40;;
18340;SDS011;9296;48.084;16.352;2023-06-05T14:02:06;5.78;;;5.18;;
18340;SDS011;9296;48.084;16.352;2023-06-05T14:04:33;5.95;;;5.20;;
18340;SDS011;9296;48.084;16.352;2023-06-05T14:07:00;7.50;;;5.10;;
18340;SDS011;9296;48.084;16.352;2023-06-05T14:09:28;7.18;;;5.13;;
18340;SDS011;9296;48.084;16.352;2023-06-05T14:11:55;7.70;;;5.43;;
18340;SDS011;9296;48.084;16.352;2023-06-05T14:14:23;6.32;;;5.25;;
18340;SDS011;9296;48.084;16.352;2023-06-05T14:16:50;7.43;;;5.50;;
18340;SDS011;9296;48.084;16.352;2023-06-05T14:19:19;6.13;;;5.13;;
18340;SDS011;9296;48.084;16.352;2023-06-05T14:21:46;5.95;;;5.28;;
18340;SDS011;9296;48.084;16.352;2023-06-05T14:24:14;7.28;;;5.40;;
18340;SDS011;9296;48.084;16.352;2023-06-05T14:26:44;5.75;;;5.15;;
18340;SDS011;9296;48.084;16.352;2023-06-05T14:29:11;6.72;;;5.28;;
18340;SDS011;9296;48.084;16.352;2023-06-05T14:31:38;5.95;;;4.75;;
18340;SDS011;9296;48.084;16.352;2023-06-05T14:34:06;5.50;;;5.00;;
18340;SDS011;9296;48.084;16.352;2023-06-05T14:36:36;5.97;;;5.38;;
18340;SDS011;9296;48.084;16.352;2023-06-05T14:39:03;6.25;;;5.65;;
18340;SDS011;9296;48.084;16.352;2023-06-05T14:41:30;8.18;;;4.90;;
18340;SDS011;9296;48.084;16.352;2023-06-05T14:43:57;7.35;;;5.00;;
18340;SDS011;9296;48.084;16.352;2023-06-05T14:46:25;9.07;;;5.55;;
18340;SDS011;9296;48.084;16.352;2023-06-05T14:48:52;5.05;;;4.55;;
18340;SDS011;9296;48.084;16.352;2023-06-05T14:51:19;4.55;;;4.03;;
18340;SDS011;9296;48.084;16.352;2023-06-05T14:53:48;6.60;;;4.32;;
18340;SDS011;9296;48.084;16.352;2023-06-05T14:56:15;5.63;;;4.28;;
18340;SDS011;9296;48.084;16.352;2023-06-05T14:58:43;4.97;;;4.47;;
18340;SDS011;9296;48.084;16.352;2023-06-05T15:01:18;6.57;;;4.72;;
18340;SDS011;9296;48.084;16.352;2023-06-05T15:03:46;6.55;;;4.72;;
18340;SDS011;9296;48.084;16.352;2023-06-05T15:06:17;6.88;;;4.75;;
18340;SDS011;9296;48.084;16.352;2023-06-05T15:08:44;8.40;;;5.07;;
18340;SDS011;9296;48.084;16.352;2023-06-05T15:11:13;5.88;;;4.88;;
18340;SDS011;9296;48.084;16.352;2023-06-05T15:13:40;5.70;;;4.80;;
18340;SDS011;9296;48.084;16.352;2023-06-05T15:16:08;5.45;;;4.95;;
18340;SDS011;9296;48.084;16.352;2023-06-05T15:18:35;6.95;;;4.93;;
18340;SDS011;9296;48.084;16.352;2023-06-05T15:21:10;5.85;;;4.43;;
18340;SDS011;9296;48.084;16.352;2023-06-05T15:23:37;4.90;;;4.40;;
18340;SDS011;9296;48.084;16.352;2023-06-05T15:26:04;4.90;;;4.40;;
18340;SDS011;9296;48.084;16.352;2023-06-05T15:28:33;6.30;;;5.30;;
18340;SDS011;9296;48.084;16.352;2023-06-05T15:31:00;7.72;;;5.35;;
18340;SDS011;9296;48.084;16.352;2023-06-05T15:33:27;6.50;;;5.82;;
18340;SDS011;9296;48.084;16.352;2023-06-05T15:35:54;7.00;;;6.30;;
18340;SDS011;9296;48.084;16.352;2023-06-05T15:38:22;8.73;;;6.15;;
18340;SDS011;9296;48.084;16.352;2023-06-05T15:40:49;7.15;;;6.25;;
18340;SDS011;9296;48.084;16.352;2023-06-05T15:43:17;7.78;;;6.47;;
18340;SDS011;9296;48.084;16.352;2023-06-05T15:45:46;8.38;;;6.43;;
18340;SDS011;9296;48.084;16.352;2023-06-05T15:48:13;7.35;;;5.95;;
18340;SDS011;9296;48.084;16.352;2023-06-05T15:50:40;6.95;;;6.28;;
18340;SDS011;9296;48.084;16.352;2023-06-05T15:53:07;8.27;;;7.28;;